createdAt,value
2018-09-27T00:00:45.740Z,990.38
2018-09-27T00:01:45.705Z,990.41
2018-09-27T00:02:45.713Z,990.39
2018-09-27T00:03:45.705Z,990.37
2018-09-27T00:04:45.699Z,990.36
2018-09-27T00:05:45.730Z,990.35
2018-09-27T00:06:45.694Z,990.38
2018-09-27T00:07:45.695Z,990.34
2018-09-27T00:08:45.685Z,990.31
2018-09-27T00:09:45.683Z,990.33
2018-09-27T00:10:45.709Z,990.35
2018-09-27T00:11:45.678Z,990.42
2018-09-27T00:12:45.674Z,990.44
2018-09-27T00:13:45.670Z,990.42
2018-09-27T00:14:45.667Z,990.44
2018-09-27T00:15:45.695Z,990.44
2018-09-27T00:16:45.666Z,990.41
2018-09-27T00:17:45.664Z,990.43
2018-09-27T00:18:45.659Z,990.45
2018-09-27T00:19:45.658Z,990.43
2018-09-27T00:20:45.675Z,990.49
2018-09-27T00:21:45.647Z,990.55
2018-09-27T00:22:45.654Z,990.56
2018-09-27T00:23:45.644Z,990.53
2018-09-27T00:24:45.639Z,990.53
2018-09-27T00:25:45.663Z,990.49
2018-09-27T00:26:45.636Z,990.47
2018-09-27T00:27:45.631Z,990.45
2018-09-27T00:28:45.767Z,990.44
2018-09-27T00:29:45.625Z,990.42
2018-09-27T00:30:45.647Z,990.39
2018-09-27T00:31:45.651Z,990.36
2018-09-27T00:32:45.617Z,990.34
2018-09-27T00:33:45.611Z,990.33
2018-09-27T00:34:45.609Z,990.32
2018-09-27T00:35:45.608Z,990.35
2018-09-27T00:36:45.628Z,990.39
2018-09-27T00:37:45.603Z,990.29
2018-09-27T00:38:45.596Z,990.35
2018-09-27T00:39:45.597Z,990.33
2018-09-27T00:40:45.616Z,990.36
2018-09-27T00:41:45.584Z,990.34
2018-09-27T00:42:45.585Z,990.31
2018-09-27T00:43:45.584Z,990.28
2018-09-27T00:44:45.577Z,990.25
2018-09-27T00:45:45.607Z,990.28
2018-09-27T00:46:45.572Z,990.27
2018-09-27T00:47:45.568Z,990.34
2018-09-27T00:48:45.700Z,990.32
2018-09-27T00:49:45.566Z,990.35
2018-09-27T00:50:45.605Z,990.39
2018-09-27T00:51:45.587Z,990.39
2018-09-27T00:52:45.548Z,990.36
2018-09-27T00:53:45.553Z,990.37
2018-09-27T00:54:45.546Z,990.36
2018-09-27T00:55:45.543Z,990.39
2018-09-27T00:56:45.571Z,990.39
2018-09-27T00:57:45.537Z,990.40
2018-09-27T00:58:45.534Z,990.43
2018-09-27T00:59:45.532Z,990.45
2018-09-27T01:00:45.526Z,990.44
2018-09-27T01:01:45.558Z,990.48
2018-09-27T01:02:45.521Z,990.48
2018-09-27T01:03:45.516Z,990.41
2018-09-27T01:04:45.516Z,990.42
2018-09-27T01:05:45.512Z,990.40
2018-09-27T01:06:45.544Z,990.38
2018-09-27T01:07:45.533Z,990.39
2018-09-27T01:08:45.498Z,990.42
2018-09-27T01:09:45.495Z,990.38
2018-09-27T01:10:45.496Z,990.34
2018-09-27T01:11:45.495Z,990.31
2018-09-27T01:12:45.517Z,990.31
2018-09-27T01:13:45.488Z,990.27
2018-09-27T01:14:45.483Z,990.27
2018-09-27T01:15:45.474Z,990.25
2018-09-27T01:16:45.499Z,990.22
2018-09-27T01:17:45.469Z,990.23
2018-09-27T01:18:45.462Z,990.21
2018-09-27T01:19:45.469Z,990.21
2018-09-27T01:20:45.464Z,990.22
2018-09-27T01:21:45.484Z,990.21
2018-09-27T01:22:45.458Z,990.17
2018-09-27T01:23:45.446Z,990.20
2018-09-27T01:24:45.446Z,990.17
2018-09-27T01:25:45.444Z,990.15
2018-09-27T01:26:45.463Z,990.14
2018-09-27T01:27:45.439Z,990.15
2018-09-27T01:28:45.475Z,990.15
2018-09-27T01:29:45.431Z,990.19
2018-09-27T01:30:45.429Z,990.13
2018-09-27T01:31:45.454Z,990.14
2018-09-27T01:32:45.423Z,990.15
2018-09-27T01:33:45.415Z,990.15
2018-09-27T01:34:45.411Z,990.16
2018-09-27T01:35:45.407Z,990.19
2018-09-27T01:36:45.430Z,990.22
2018-09-27T01:37:45.404Z,990.23
2018-09-27T01:38:45.399Z,990.16
2018-09-27T01:39:45.391Z,990.16
2018-09-27T01:40:45.391Z,990.14
2018-09-27T01:41:45.429Z,990.13
2018-09-27T01:42:45.383Z,990.15
2018-09-27T01:43:45.385Z,990.15
2018-09-27T01:44:45.379Z,990.15
2018-09-27T01:45:45.378Z,990.14
2018-09-27T01:46:45.396Z,990.12
2018-09-27T01:47:45.366Z,990.15
2018-09-27T01:48:45.360Z,990.14
2018-09-27T01:49:45.355Z,990.14
2018-09-27T01:50:45.357Z,990.10
2018-09-27T01:51:45.381Z,990.15
2018-09-27T01:52:45.348Z,990.17
2018-09-27T01:53:45.343Z,990.17
2018-09-27T01:54:45.335Z,990.17
2018-09-27T01:55:45.338Z,990.16
2018-09-27T01:56:45.370Z,990.13
2018-09-27T01:57:45.358Z,990.09
2018-09-27T01:58:45.322Z,990.05
2018-09-27T01:59:45.325Z,990.05
2018-09-27T02:00:45.321Z,990.04
2018-09-27T02:01:45.317Z,990.06
2018-09-27T02:02:45.337Z,990.07
2018-09-27T02:03:45.309Z,990.12
2018-09-27T02:04:45.304Z,990.09
2018-09-27T02:05:45.303Z,990.07
2018-09-27T02:06:45.333Z,990.00
2018-09-27T02:07:45.296Z,990.00
2018-09-27T02:08:45.294Z,989.97
2018-09-27T02:09:45.288Z,989.98
2018-09-27T02:10:45.285Z,989.96
2018-09-27T02:11:45.308Z,989.96
2018-09-27T02:12:45.274Z,989.98
2018-09-27T02:13:45.276Z,990.01
2018-09-27T02:14:45.272Z,990.03
2018-09-27T02:15:45.269Z,990.01
2018-09-27T02:16:45.294Z,990.02
2018-09-27T02:17:45.259Z,990.05
2018-09-27T02:18:45.257Z,990.03
2018-09-27T02:19:45.254Z,989.98
2018-09-27T02:20:45.249Z,989.96
2018-09-27T02:21:45.274Z,989.94
2018-09-27T02:22:45.242Z,989.93
2018-09-27T02:23:45.241Z,989.91
2018-09-27T02:24:45.239Z,989.88
2018-09-27T02:25:45.271Z,989.90
2018-09-27T02:26:45.232Z,989.91
2018-09-27T02:27:45.256Z,989.92
2018-09-27T02:28:45.225Z,989.92
2018-09-27T02:29:45.226Z,989.92
2018-09-27T02:30:45.220Z,989.93
2018-09-27T02:31:45.243Z,989.96
2018-09-27T02:32:45.210Z,989.93
2018-09-27T02:33:45.204Z,989.95
2018-09-27T02:34:45.205Z,989.88
2018-09-27T02:35:45.203Z,989.86
2018-09-27T02:36:45.225Z,989.84
2018-09-27T02:37:45.197Z,989.79
2018-09-27T02:38:45.191Z,989.81
2018-09-27T02:39:45.189Z,989.81
2018-09-27T02:40:45.187Z,989.83
2018-09-27T02:41:45.204Z,989.80
2018-09-27T02:42:45.181Z,989.76
2018-09-27T02:43:45.175Z,989.79
2018-09-27T02:44:45.171Z,989.78
2018-09-27T02:45:45.173Z,989.77
2018-09-27T02:46:45.193Z,989.80
2018-09-27T02:47:45.163Z,989.78
2018-09-27T02:48:45.155Z,989.79
2018-09-27T02:49:45.161Z,989.72
2018-09-27T02:50:45.152Z,989.77
2018-09-27T02:51:45.175Z,989.75
2018-09-27T02:52:45.173Z,989.77
2018-09-27T02:53:45.139Z,989.75
2018-09-27T02:54:45.135Z,989.77
2018-09-27T02:55:45.138Z,989.78
2018-09-27T02:56:45.124Z,989.79
2018-09-27T02:57:45.152Z,989.78
2018-09-27T02:58:45.372Z,989.80
2018-09-27T02:59:45.120Z,989.74
2018-09-27T03:00:45.121Z,989.72
2018-09-27T03:01:45.112Z,989.72
2018-09-27T03:02:45.140Z,989.70
2018-09-27T03:03:45.108Z,989.74
2018-09-27T03:04:45.100Z,989.75
2018-09-27T03:05:45.099Z,989.75
2018-09-27T03:06:45.097Z,989.73
2018-09-27T03:07:45.120Z,989.72
2018-09-27T03:08:45.088Z,989.73
2018-09-27T03:09:45.084Z,989.71
2018-09-27T03:10:45.082Z,989.70
2018-09-27T03:11:45.080Z,989.74
2018-09-27T03:12:45.095Z,989.71
2018-09-27T03:13:45.125Z,989.73
2018-09-27T03:14:45.073Z,989.72
2018-09-27T03:15:45.065Z,989.70
2018-09-27T03:16:45.060Z,989.70
2018-09-27T03:17:45.081Z,989.70
2018-09-27T03:18:45.056Z,989.64
2018-09-27T03:19:45.049Z,989.63
2018-09-27T03:20:45.087Z,989.62
2018-09-27T03:21:45.040Z,989.62
2018-09-27T03:22:45.070Z,989.65
2018-09-27T03:23:45.038Z,989.58
2018-09-27T03:24:45.033Z,989.63
2018-09-27T03:25:45.036Z,989.61
2018-09-27T03:26:45.029Z,989.58
2018-09-27T03:27:45.050Z,989.58
2018-09-27T03:28:45.017Z,989.54
2018-09-27T03:29:45.018Z,989.56
2018-09-27T03:30:45.020Z,989.55
2018-09-27T03:31:45.011Z,989.57
2018-09-27T03:32:45.034Z,989.60
2018-09-27T03:33:45.001Z,989.59
2018-09-27T03:34:44.993Z,989.61
2018-09-27T03:35:44.998Z,989.60
2018-09-27T03:36:44.995Z,989.58
2018-09-27T03:37:45.024Z,989.56
2018-09-27T03:38:44.991Z,989.56
2018-09-27T03:39:45.075Z,989.52
2018-09-27T03:40:45.041Z,989.60
2018-09-27T03:41:44.976Z,989.61
2018-09-27T03:42:44.998Z,989.61
2018-09-27T03:43:44.971Z,989.59
2018-09-27T03:44:44.968Z,989.64
2018-09-27T03:45:44.973Z,989.66
2018-09-27T03:46:44.962Z,989.68
2018-09-27T03:47:44.986Z,989.68
2018-09-27T03:48:44.950Z,989.64
2018-09-27T03:49:44.950Z,989.63
2018-09-27T03:50:44.947Z,989.63
2018-09-27T03:51:44.938Z,989.65
2018-09-27T03:52:44.967Z,989.61
2018-09-27T03:53:44.935Z,989.61
2018-09-27T03:54:44.930Z,989.63
2018-09-27T03:55:44.926Z,989.62
2018-09-27T03:56:44.920Z,989.59
2018-09-27T03:57:44.948Z,989.54
2018-09-27T03:58:44.919Z,989.51
2018-09-27T03:59:44.913Z,989.50
2018-09-27T04:00:44.911Z,989.52
2018-09-27T04:01:44.907Z,989.55
2018-09-27T04:02:44.933Z,989.52
2018-09-27T04:03:44.899Z,989.53
2018-09-27T04:04:54.339Z,989.52
2018-09-27T04:05:44.862Z,989.48
2018-09-27T04:06:44.856Z,989.47
2018-09-27T04:07:44.877Z,989.46
2018-09-27T04:08:44.847Z,989.46
2018-09-27T04:09:44.849Z,989.44
2018-09-27T04:10:44.843Z,989.40
2018-09-27T04:11:44.840Z,989.34
2018-09-27T04:12:44.929Z,989.33
2018-09-27T04:13:44.829Z,989.34
2018-09-27T04:14:44.829Z,989.31
2018-09-27T04:15:44.881Z,989.36
2018-09-27T04:16:44.821Z,989.35
2018-09-27T04:17:44.855Z,989.35
2018-09-27T04:18:44.837Z,989.37
2018-09-27T04:19:44.809Z,989.34
2018-09-27T04:20:44.815Z,989.36
2018-09-27T04:21:44.826Z,989.38
2018-09-27T04:22:44.804Z,989.32
2018-09-27T04:23:44.827Z,989.39
2018-09-27T04:24:44.791Z,989.39
2018-09-27T04:25:45.429Z,989.42
2018-09-27T04:26:44.785Z,989.37
2018-09-27T04:27:44.835Z,989.40
2018-09-27T04:28:44.802Z,989.43
2018-09-27T04:29:44.778Z,989.42
2018-09-27T04:30:44.772Z,989.38
2018-09-27T04:31:44.771Z,989.37
2018-09-27T04:32:44.761Z,989.33
2018-09-27T04:33:44.844Z,989.32
2018-09-27T04:34:44.759Z,989.36
2018-09-27T04:35:44.755Z,989.36
2018-09-27T04:36:44.760Z,989.36
2018-09-27T04:37:44.750Z,989.37
2018-09-27T04:38:44.768Z,989.40
2018-09-27T04:39:44.762Z,989.40
2018-09-27T04:40:44.743Z,989.38
2018-09-27T04:41:44.733Z,989.44
2018-09-27T04:42:44.727Z,989.46
2018-09-27T04:43:44.759Z,989.46
2018-09-27T04:44:44.718Z,989.45
2018-09-27T04:45:44.722Z,989.43
2018-09-27T04:46:44.761Z,989.44
2018-09-27T04:47:44.733Z,989.45
2018-09-27T04:48:44.710Z,989.44
2018-09-27T04:49:44.699Z,989.45
2018-09-27T04:50:44.699Z,989.49
2018-09-27T04:51:44.704Z,989.47
2018-09-27T04:52:44.716Z,989.46
2018-09-27T04:53:44.683Z,989.49
2018-09-27T04:54:44.681Z,989.46
2018-09-27T04:55:44.679Z,989.50
2018-09-27T04:56:44.677Z,989.49
2018-09-27T04:57:44.708Z,989.51
2018-09-27T04:58:44.672Z,989.56
2018-09-27T04:59:44.700Z,989.56
2018-09-27T05:00:44.663Z,989.60
2018-09-27T05:01:44.661Z,989.63
2018-09-27T05:02:44.654Z,989.58
2018-09-27T05:03:44.719Z,989.54
2018-09-27T05:04:44.655Z,989.53
2018-09-27T05:05:44.642Z,989.54
2018-09-27T05:06:44.649Z,989.48
2018-09-27T05:07:44.667Z,989.50
2018-09-27T05:08:44.634Z,989.50
2018-09-27T05:09:44.751Z,989.45
2018-09-27T05:10:44.639Z,989.44
2018-09-27T05:11:44.628Z,989.47
2018-09-27T05:12:44.646Z,989.45
2018-09-27T05:13:44.616Z,989.44
2018-09-27T05:14:44.612Z,989.45
2018-09-27T05:15:44.617Z,989.46
2018-09-27T05:16:44.608Z,989.51
2018-09-27T05:17:44.631Z,989.50
2018-09-27T05:18:44.606Z,989.51
2018-09-27T05:19:44.602Z,989.53
2018-09-27T05:20:44.594Z,989.52
2018-09-27T05:21:44.861Z,989.50
2018-09-27T05:22:44.618Z,989.52
2018-09-27T05:23:44.583Z,989.51
2018-09-27T05:24:44.579Z,989.52
2018-09-27T05:25:44.588Z,989.55
2018-09-27T05:26:44.572Z,989.54
2018-09-27T05:27:45.145Z,989.56
2018-09-27T05:28:44.757Z,989.54
2018-09-27T05:29:44.635Z,989.58
2018-09-27T05:30:46.767Z,989.60
2018-09-27T05:31:44.557Z,989.60
2018-09-27T05:32:44.692Z,989.61
2018-09-27T05:33:45.243Z,989.60
2018-09-27T05:34:44.545Z,989.62
2018-09-27T05:35:46.284Z,989.61
2018-09-27T05:36:45.553Z,989.62
2018-09-27T05:37:45.744Z,989.63
2018-09-27T05:38:44.538Z,989.62
2018-09-27T05:39:45.354Z,989.59
2018-09-27T05:40:44.530Z,989.61
2018-09-27T05:41:44.526Z,989.55
2018-09-27T05:42:44.554Z,989.61
2018-09-27T05:43:44.573Z,989.62
2018-09-27T05:44:46.066Z,989.66
2018-09-27T05:45:46.175Z,989.66
2018-09-27T05:46:44.689Z,989.66
2018-09-27T05:47:44.922Z,989.63
2018-09-27T05:48:44.514Z,989.62
2018-09-27T05:49:44.533Z,989.64
2018-09-27T05:50:44.501Z,989.60
2018-09-27T05:51:44.499Z,989.63
2018-09-27T05:52:44.491Z,989.60
2018-09-27T05:53:44.521Z,989.62
2018-09-27T05:54:44.487Z,989.64
2018-09-27T05:55:44.544Z,989.63
2018-09-27T05:56:44.484Z,989.69
2018-09-27T05:57:44.485Z,989.66
2018-09-27T05:58:44.500Z,989.67
2018-09-27T05:59:44.475Z,989.68
2018-09-27T06:00:44.470Z,989.67
2018-09-27T06:01:44.471Z,989.69
2018-09-27T06:02:44.465Z,989.67
2018-09-27T06:03:44.578Z,989.68
2018-09-27T06:04:44.490Z,989.71
2018-09-27T06:05:44.461Z,989.73
2018-09-27T06:06:44.457Z,989.73
2018-09-27T06:07:44.455Z,989.73
2018-09-27T06:08:44.474Z,989.76
2018-09-27T06:09:44.506Z,989.74
2018-09-27T06:10:44.448Z,989.78
2018-09-27T06:11:44.448Z,989.78
2018-09-27T06:12:44.463Z,989.77
2018-09-27T06:13:44.438Z,989.74
2018-09-27T06:14:44.438Z,989.74
2018-09-27T06:15:44.437Z,989.75
2018-09-27T06:16:44.432Z,989.77
2018-09-27T06:17:44.451Z,989.75
2018-09-27T06:18:44.428Z,989.78
2018-09-27T06:19:44.467Z,989.77
2018-09-27T06:20:44.420Z,989.77
2018-09-27T06:21:44.424Z,989.80
2018-09-27T06:22:44.443Z,989.83
2018-09-27T06:23:44.414Z,989.91
2018-09-27T06:24:44.436Z,989.87
2018-09-27T06:25:44.413Z,989.82
2018-09-27T06:26:44.418Z,989.84
2018-09-27T06:27:44.446Z,989.82
2018-09-27T06:28:44.410Z,989.86
2018-09-27T06:29:44.402Z,989.88
2018-09-27T06:30:44.429Z,989.88
2018-09-27T06:31:44.402Z,989.97
2018-09-27T06:32:44.399Z,989.94
2018-09-27T06:33:44.498Z,990.02
2018-09-27T06:34:44.397Z,990.11
2018-09-27T06:35:44.394Z,990.00
2018-09-27T06:36:44.394Z,989.99
2018-09-27T06:37:44.398Z,990.10
2018-09-27T06:38:44.469Z,990.20
2018-09-27T06:39:44.389Z,990.20
2018-09-27T06:40:44.392Z,990.23
2018-09-27T06:41:44.390Z,990.15
2018-09-27T06:42:44.399Z,990.07
2018-09-27T06:43:44.409Z,990.01
2018-09-27T06:44:44.454Z,990.10
2018-09-27T06:45:44.383Z,990.18
2018-09-27T06:46:44.387Z,990.17
2018-09-27T06:47:44.384Z,990.18
2018-09-27T06:48:44.460Z,990.21
2018-09-27T06:49:44.386Z,990.17
2018-09-27T06:50:44.561Z,990.15
2018-09-27T06:51:44.385Z,990.09
2018-09-27T06:52:44.382Z,990.21
2018-09-27T06:53:44.387Z,990.27
2018-09-27T06:54:44.442Z,990.28
2018-09-27T06:55:44.465Z,990.27
2018-09-27T06:56:44.433Z,990.34
2018-09-27T06:57:44.386Z,990.37
2018-09-27T06:58:44.389Z,990.39
2018-09-27T06:59:44.419Z,990.38
2018-09-27T07:00:44.416Z,990.35
2018-09-27T07:01:44.400Z,990.32
2018-09-27T07:02:44.476Z,990.28
2018-09-27T07:03:44.402Z,990.28
2018-09-27T07:04:44.437Z,990.23
2018-09-27T07:05:44.408Z,990.26
2018-09-27T07:06:44.409Z,990.20
2018-09-27T07:07:44.409Z,990.20
2018-09-27T07:08:44.469Z,990.21
2018-09-27T07:09:44.441Z,990.29
2018-09-27T07:10:44.415Z,990.26
2018-09-27T07:11:44.425Z,990.29
2018-09-27T07:12:44.471Z,990.30
2018-09-27T07:13:44.426Z,990.28
2018-09-27T07:14:44.455Z,990.24
2018-09-27T07:15:44.470Z,990.29
2018-09-27T07:16:44.439Z,990.27
2018-09-27T07:17:44.439Z,990.25
2018-09-27T07:18:44.503Z,990.18
2018-09-27T07:19:44.443Z,990.17
2018-09-27T07:20:44.488Z,990.18
2018-09-27T07:21:44.452Z,990.19
2018-09-27T07:22:44.457Z,990.14
2018-09-27T07:23:44.487Z,990.16
2018-09-27T07:24:44.462Z,990.11
2018-09-27T07:25:44.469Z,990.15
2018-09-27T07:26:44.602Z,990.16
2018-09-27T07:27:44.468Z,990.14
2018-09-27T07:28:44.497Z,990.14
2018-09-27T07:29:44.477Z,990.14
2018-09-27T07:30:44.482Z,990.15
2018-09-27T07:31:44.484Z,990.13
2018-09-27T07:32:44.586Z,990.11
2018-09-27T07:33:44.492Z,990.09
2018-09-27T07:34:44.498Z,990.08
2018-09-27T07:35:44.499Z,990.12
2018-09-27T07:36:44.572Z,990.13
2018-09-27T07:37:44.532Z,990.12
2018-09-27T07:38:44.589Z,990.14
2018-09-27T07:39:44.515Z,990.15
2018-09-27T07:40:44.519Z,990.11
2018-09-27T07:41:44.524Z,990.12
2018-09-27T07:42:44.634Z,990.09
2018-09-27T07:43:44.530Z,990.08
2018-09-27T07:44:44.528Z,990.07
2018-09-27T07:45:44.533Z,990.08
2018-09-27T07:46:44.544Z,990.10
2018-09-27T07:47:44.567Z,990.09
2018-09-27T07:48:44.548Z,990.14
2018-09-27T07:49:44.554Z,990.15
2018-09-27T07:50:44.558Z,990.15
2018-09-27T07:51:44.553Z,990.15
2018-09-27T07:52:44.585Z,990.16
2018-09-27T07:53:44.570Z,990.15
2018-09-27T07:54:44.604Z,990.14
2018-09-27T07:55:44.575Z,990.16
2018-09-27T07:56:44.575Z,990.16
2018-09-27T07:57:44.607Z,990.18
2018-09-27T07:58:44.589Z,990.17
2018-09-27T07:59:44.588Z,990.16
2018-09-27T08:00:44.592Z,990.19
2018-09-27T08:01:44.597Z,990.18
2018-09-27T08:02:44.721Z,990.14
2018-09-27T08:03:44.600Z,990.17
2018-09-27T08:04:44.607Z,990.18
2018-09-27T08:05:44.706Z,990.16
2018-09-27T08:06:44.614Z,990.20
2018-09-27T08:07:44.646Z,990.16
2018-09-27T08:08:45.479Z,990.13
2018-09-27T08:09:45.929Z,990.15
2018-09-27T08:10:44.633Z,990.14
2018-09-27T08:11:44.661Z,990.12
2018-09-27T08:12:44.664Z,990.12
2018-09-27T08:13:44.641Z,990.13
2018-09-27T08:14:44.667Z,990.14
2018-09-27T08:15:44.659Z,990.17
2018-09-27T08:16:45.610Z,990.16
2018-09-27T08:17:44.693Z,990.13
2018-09-27T08:18:44.698Z,990.17
2018-09-27T08:19:44.668Z,990.14
2018-09-27T08:20:44.828Z,990.14
2018-09-27T08:21:44.679Z,990.18
2018-09-27T08:22:45.634Z,990.17
2018-09-27T08:23:44.713Z,990.20
2018-09-27T08:24:44.691Z,990.17
2018-09-27T08:25:44.704Z,990.19
2018-09-27T08:26:44.704Z,990.19
2018-09-27T08:27:44.713Z,990.22
2018-09-27T08:28:44.743Z,990.19
2018-09-27T08:29:44.851Z,990.15
2018-09-27T08:30:44.776Z,990.16
2018-09-27T08:31:44.735Z,990.12
2018-09-27T08:32:44.801Z,990.14
2018-09-27T08:33:44.771Z,990.18
2018-09-27T08:34:44.755Z,990.16
2018-09-27T08:35:44.759Z,990.16
2018-09-27T08:36:44.794Z,990.18
2018-09-27T08:37:44.778Z,990.18
2018-09-27T08:38:44.863Z,990.20
2018-09-27T08:39:44.782Z,990.20
2018-09-27T08:40:44.787Z,990.26
2018-09-27T08:41:44.800Z,990.28
2018-09-27T08:42:44.804Z,990.26
2018-09-27T08:43:44.850Z,990.32
2018-09-27T08:44:44.895Z,990.34
2018-09-27T08:45:44.922Z,990.33
2018-09-27T08:46:44.855Z,990.21
2018-09-27T08:47:44.837Z,990.30
2018-09-27T08:48:44.845Z,990.31
2018-09-27T08:49:44.877Z,990.26
2018-09-27T08:50:44.859Z,990.36
2018-09-27T08:51:44.873Z,990.24
2018-09-27T08:52:44.876Z,990.29
2018-09-27T08:53:44.886Z,990.28
2018-09-27T08:54:44.922Z,990.22
2018-09-27T08:55:45.073Z,990.31
2018-09-27T08:56:44.915Z,990.34
2018-09-27T08:57:44.929Z,990.31
2018-09-27T08:58:44.961Z,990.30
2018-09-27T08:59:44.947Z,990.32
2018-09-27T09:00:44.957Z,990.32
2018-09-27T09:01:44.969Z,990.37
2018-09-27T09:02:44.980Z,990.34
2018-09-27T09:03:45.112Z,990.29
2018-09-27T09:04:45.003Z,990.30
2018-09-27T09:05:45.022Z,990.30
2018-09-27T09:06:45.028Z,990.25
2018-09-27T09:07:45.131Z,990.29
2018-09-27T09:08:45.085Z,990.26
2018-09-27T09:09:45.065Z,990.23
2018-09-27T09:10:45.083Z,990.14
2018-09-27T09:11:45.089Z,990.13
2018-09-27T09:12:45.115Z,990.11
2018-09-27T09:13:45.226Z,990.11
2018-09-27T09:14:45.159Z,990.10
2018-09-27T09:15:45.149Z,990.09
2018-09-27T09:16:45.159Z,990.09
2018-09-27T09:17:45.177Z,990.11
2018-09-27T09:18:45.214Z,990.07
2018-09-27T09:19:45.236Z,990.07
2018-09-27T09:20:45.222Z,990.05
2018-09-27T09:21:45.232Z,990.04
2018-09-27T09:22:45.248Z,990.03
2018-09-27T09:23:45.292Z,990.05
2018-09-27T09:24:45.281Z,990.02
2018-09-27T09:25:45.304Z,990.03
2018-09-27T09:26:45.330Z,990.05
2018-09-27T09:27:45.896Z,990.04
2018-09-27T09:28:45.367Z,990.04
2018-09-27T09:29:45.530Z,989.97
2018-09-27T09:30:45.440Z,989.92
2018-09-27T09:31:45.399Z,989.92
2018-09-27T09:32:45.407Z,989.94
2018-09-27T09:33:45.525Z,989.96
2018-09-27T09:34:46.396Z,989.98
2018-09-27T09:35:45.512Z,989.97
2018-09-27T09:36:45.475Z,989.94
2018-09-27T09:37:45.495Z,989.94
2018-09-27T09:38:45.535Z,989.99
2018-09-27T09:39:45.551Z,989.89
2018-09-27T09:40:45.540Z,989.86
2018-09-27T09:41:45.560Z,989.87
2018-09-27T09:42:45.581Z,989.82
2018-09-27T09:43:45.620Z,989.76
2018-09-27T09:44:45.611Z,989.71
2018-09-27T09:45:45.627Z,989.69
2018-09-27T09:46:45.646Z,989.67
2018-09-27T09:47:45.665Z,989.76
2018-09-27T09:48:45.715Z,989.71
2018-09-27T09:49:45.711Z,989.73
2018-09-27T09:50:45.718Z,989.80
2018-09-27T09:51:45.732Z,989.82
2018-09-27T09:52:45.751Z,989.77
2018-09-27T09:53:45.794Z,989.80
2018-09-27T09:54:45.811Z,989.72
2018-09-27T09:55:45.805Z,989.65
2018-09-27T09:56:45.818Z,989.64
2018-09-27T09:57:45.835Z,989.62
2018-09-27T09:58:45.853Z,989.67
2018-09-27T09:59:45.903Z,989.69
2018-09-27T10:00:45.889Z,989.69
2018-09-27T10:01:45.903Z,989.61
2018-09-27T10:02:45.921Z,989.62
2018-09-27T10:03:45.939Z,989.61
2018-09-27T10:04:45.981Z,989.60
2018-09-27T10:05:45.974Z,989.54
2018-09-27T10:06:45.992Z,989.49
2018-09-27T10:07:46.012Z,989.52
2018-09-27T10:08:46.070Z,989.46
2018-09-27T10:09:46.048Z,989.56
2018-09-27T10:10:46.065Z,989.52
2018-09-27T10:11:46.083Z,989.51
2018-09-27T10:12:46.101Z,989.50
2018-09-27T10:13:46.146Z,989.51
2018-09-27T10:14:46.144Z,989.51
2018-09-27T10:15:46.165Z,989.53
2018-09-27T10:16:46.177Z,989.51
2018-09-27T10:17:46.202Z,989.51
2018-09-27T10:18:46.244Z,989.48
2018-09-27T10:19:46.236Z,989.44
2018-09-27T10:20:46.260Z,989.23
2018-09-27T10:21:46.379Z,989.28
2018-09-27T10:22:46.298Z,989.36
2018-09-27T10:23:46.351Z,989.36
2018-09-27T10:24:46.330Z,989.39
2018-09-27T10:25:47.982Z,989.39
2018-09-27T10:26:46.369Z,989.36
2018-09-27T10:27:46.388Z,989.39
2018-09-27T10:28:46.439Z,989.35
2018-09-27T10:29:46.432Z,989.32
2018-09-27T10:30:46.447Z,989.35
2018-09-27T10:31:46.464Z,989.39
2018-09-27T10:32:46.498Z,989.32
2018-09-27T10:33:46.536Z,989.36
2018-09-27T10:34:46.588Z,989.34
2018-09-27T10:35:46.542Z,989.27
2018-09-27T10:36:46.564Z,989.29
2018-09-27T10:37:46.590Z,989.32
2018-09-27T10:38:46.634Z,989.30
2018-09-27T10:39:46.625Z,989.31
2018-09-27T10:40:46.644Z,989.29
2018-09-27T10:41:46.666Z,989.26
2018-09-27T10:42:46.679Z,989.24
2018-09-27T10:43:46.739Z,989.24
2018-09-27T10:44:46.745Z,989.20
2018-09-27T10:45:46.742Z,989.21
2018-09-27T10:46:46.773Z,989.21
2018-09-27T10:47:46.780Z,989.14
2018-09-27T10:48:46.826Z,989.17
2018-09-27T10:49:46.851Z,989.16
2018-09-27T10:50:46.839Z,989.13
2018-09-27T10:51:46.868Z,989.08
2018-09-27T10:52:46.886Z,989.05
2018-09-27T10:53:46.935Z,989.04
2018-09-27T10:54:46.929Z,989.05
2018-09-27T10:55:46.947Z,989.03
2018-09-27T10:56:46.969Z,989.03
2018-09-27T10:57:46.989Z,988.99
2018-09-27T10:58:47.036Z,988.96
2018-09-27T10:59:47.097Z,988.99
2018-09-27T11:00:47.054Z,988.97
2018-09-27T11:01:47.069Z,988.98
2018-09-27T11:02:47.091Z,988.95
2018-09-27T11:03:47.156Z,988.96
2018-09-27T11:04:47.145Z,988.90
2018-09-27T11:05:47.224Z,988.91
2018-09-27T11:06:47.218Z,988.88
2018-09-27T11:07:47.229Z,988.87
2018-09-27T11:08:47.267Z,988.87
2018-09-27T11:09:47.275Z,988.81
2018-09-27T11:10:47.283Z,988.84
2018-09-27T11:11:47.301Z,988.80
2018-09-27T11:12:47.336Z,988.75
2018-09-27T11:13:47.385Z,988.73
2018-09-27T11:14:47.409Z,988.74
2018-09-27T11:15:47.384Z,988.71
2018-09-27T11:16:47.419Z,988.72
2018-09-27T11:17:47.452Z,988.58
2018-09-27T11:18:47.526Z,988.69
2018-09-27T11:19:47.480Z,988.68
2018-09-27T11:20:47.527Z,988.65
2018-09-27T11:21:47.538Z,988.63
2018-09-27T11:22:47.548Z,988.57
2018-09-27T11:23:48.511Z,988.60
2018-09-27T11:24:47.614Z,988.52
2018-09-27T11:25:47.644Z,988.49
2018-09-27T11:26:47.637Z,988.49
2018-09-27T11:27:47.695Z,988.46
2018-09-27T11:28:47.737Z,988.43
2018-09-27T11:29:47.708Z,988.43
2018-09-27T11:30:48.460Z,988.38
2018-09-27T11:31:47.763Z,988.35
2018-09-27T11:32:47.793Z,988.33
2018-09-27T11:33:47.820Z,988.30
2018-09-27T11:34:47.810Z,988.30
2018-09-27T11:35:47.857Z,988.26
2018-09-27T11:36:47.896Z,988.25
2018-09-27T11:37:47.889Z,988.20
2018-09-27T11:38:47.938Z,988.19
2018-09-27T11:39:47.932Z,988.19
2018-09-27T11:40:47.956Z,988.15
2018-09-27T11:41:47.993Z,988.15
2018-09-27T11:42:48.044Z,988.11
2018-09-27T11:43:48.049Z,988.09
2018-09-27T11:44:48.050Z,988.12
2018-09-27T11:45:48.076Z,988.06
2018-09-27T11:46:48.087Z,988.09
2018-09-27T11:47:48.153Z,988.04
2018-09-27T11:48:48.242Z,988.01
2018-09-27T11:49:48.211Z,988.04
2018-09-27T11:50:48.236Z,988.02
2018-09-27T11:51:48.202Z,988.01
2018-09-27T11:52:48.257Z,987.98
2018-09-27T11:53:48.230Z,987.95
2018-09-27T11:54:48.307Z,987.86
2018-09-27T11:55:48.288Z,987.86
2018-09-27T11:56:48.341Z,987.81
2018-09-27T11:57:48.345Z,987.76
2018-09-27T11:58:48.357Z,987.78
2018-09-27T11:59:48.418Z,987.79
2018-09-27T12:00:48.409Z,987.78
2018-09-27T12:01:48.419Z,987.77
2018-09-27T12:02:48.489Z,987.79
2018-09-27T12:03:48.483Z,987.75
2018-09-27T12:04:48.574Z,987.64
2018-09-27T12:05:48.576Z,987.63
2018-09-27T12:06:48.529Z,987.60
2018-09-27T12:07:48.562Z,987.59
2018-09-27T12:08:48.583Z,987.47
2018-09-27T12:09:48.632Z,987.38
2018-09-27T12:10:48.681Z,987.43
2018-09-27T12:11:48.707Z,987.45
2018-09-27T12:12:48.669Z,987.51
2018-09-27T12:13:48.702Z,987.51
2018-09-27T12:14:48.726Z,987.46
2018-09-27T12:15:48.739Z,987.45
2018-09-27T12:16:48.786Z,987.40
2018-09-27T12:17:48.781Z,987.38
2018-09-27T12:18:48.810Z,987.38
2018-09-27T12:19:48.846Z,987.35
2018-09-27T12:20:48.868Z,987.35
2018-09-27T12:21:48.880Z,987.37
2018-09-27T12:22:48.930Z,987.33
2018-09-27T12:23:48.905Z,987.37
2018-09-27T12:24:48.966Z,987.39
2018-09-27T12:25:48.932Z,987.35
2018-09-27T12:26:48.952Z,987.34
2018-09-27T12:27:48.986Z,987.33
2018-09-27T12:28:49.998Z,987.33